Time;durP1;ratioP1;P1;durP2;ratioP2;P2;SDS_P1;SDS_P2;PMS_P1;PMS_P2;Temp;Humidity;BMP_temperature;BMP_pressure;BME280_temperature;BME280_humidity;BME280_pressure;Samples;Min_cycle;Max_cycle;Signal;HPM_P1;HPM_P2
2023/10/15 00:00:40;;;;;;;4.68;2.35;;;;;;;;;;4837819;29;20586;-79
2023/10/15 00:03:07;;;;;;;2.58;1.92;;;;;;;;;;4854047;29;20054;-79
2023/10/15 00:05:37;;;;;;;2.85;2.08;;;;;;;;;;4845084;29;20041;-79
2023/10/15 00:08:06;;;;;;;2.28;1.88;;;;;;;;;;4852365;29;20061;-79
2023/10/15 00:10:34;;;;;;;3.33;2.30;;;;;;;;;;4849400;29;20286;-79
2023/10/15 00:13:05;;;;;;;6.35;2.28;;;;;;;;;;4836423;29;20180;-79
2023/10/15 00:15:39;;;;;;;4.05;2.63;;;;;;;;;;4851323;29;20057;-79
2023/10/15 00:18:09;;;;;;;2.22;1.88;;;;;;;;;;4849151;29;20053;-79
2023/10/15 00:20:40;;;;;;;2.78;1.75;;;;;;;;;;4833979;29;20064;-79
2023/10/15 00:23:09;;;;;;;5.05;2.03;;;;;;;;;;4865612;29;20062;-79
2023/10/15 00:25:38;;;;;;;6.32;2.42;;;;;;;;;;4847879;29;20060;-79
2023/10/15 00:28:11;;;;;;;1.92;1.73;;;;;;;;;;4833062;29;20073;-79
2023/10/15 00:30:39;;;;;;;4.45;2.30;;;;;;;;;;4847238;29;20408;-79
2023/10/15 00:33:11;;;;;;;5.32;2.30;;;;;;;;;;4833004;29;20061;-79
2023/10/15 00:35:44;;;;;;;4.65;2.58;;;;;;;;;;4836910;29;20424;-79
2023/10/15 00:38:16;;;;;;;4.28;2.72;;;;;;;;;;4832708;29;20066;-79
2023/10/15 00:40:46;;;;;;;3.03;2.10;;;;;;;;;;4841522;29;20061;-79
2023/10/15 00:43:17;;;;;;;4.22;2.63;;;;;;;;;;4836649;29;20524;-79
2023/10/15 00:45:47;;;;;;;2.97;2.28;;;;;;;;;;4834524;29;20046;-79
2023/10/15 00:48:24;;;;;;;3.42;2.53;;;;;;;;;;4835103;29;20054;-79
2023/10/15 00:50:55;;;;;;;2.72;2.08;;;;;;;;;;4857938;29;20520;-79
2023/10/15 00:53:26;;;;;;;2.65;2.45;;;;;;;;;;4836282;29;20061;-79
2023/10/15 00:55:55;;;;;;;5.57;2.97;;;;;;;;;;4834572;29;20057;-79
2023/10/15 00:58:33;;;;;;;6.25;3.53;;;;;;;;;;4837536;29;20053;-79
2023/10/15 01:01:20;;;;;;;3.03;2.47;;;;;;;;;;4851993;29;20054;-79
2023/10/15 01:03:53;;;;;;;2.25;2.05;;;;;;;;;;4879084;23;20023;-82
2023/10/15 01:06:29;;;;;;;4.43;3.22;;;;;;;;;;4879721;29;20052;-82
2023/10/15 01:09:08;;;;;;;3.67;2.15;;;;;;;;;;4861616;29;20053;-83
2023/10/15 01:11:36;;;;;;;6.38;2.88;;;;;;;;;;4866141;29;20048;-82
2023/10/15 01:14:10;;;;;;;4.57;2.80;;;;;;;;;;4876883;29;20079;-83
2023/10/15 01:16:41;;;;;;;4.65;3.40;;;;;;;;;;4877659;29;20049;-83
2023/10/15 01:19:18;;;;;;;6.35;2.72;;;;;;;;;;4861883;29;20061;-83
2023/10/15 01:21:52;;;;;;;5.70;2.70;;;;;;;;;;4862376;29;20432;-83
2023/10/15 01:24:20;;;;;;;3.50;2.20;;;;;;;;;;4859024;29;20059;-83
2023/10/15 01:26:59;;;;;;;2.70;2.28;;;;;;;;;;4877347;29;20419;-83
2023/10/15 01:29:33;;;;;;;3.88;2.92;;;;;;;;;;4892071;29;20064;-83
2023/10/15 01:32:07;;;;;;;3.25;2.65;;;;;;;;;;4868792;29;20054;-82
2023/10/15 01:34:38;;;;;;;6.10;2.70;;;;;;;;;;4877810;29;20041;-83
2023/10/15 01:37:13;;;;;;;4.22;2.55;;;;;;;;;;4875369;29;20053;-83
2023/10/15 01:39:45;;;;;;;3.72;2.10;;;;;;;;;;4882425;29;20049;-83
2023/10/15 01:42:32;;;;;;;4.05;2.60;;;;;;;;;;4865806;29;20119;-83
2023/10/15 01:45:13;;;;;;;3.90;2.45;;;;;;;;;;4876875;29;20049;-83
2023/10/15 01:47:56;;;;;;;3.72;2.70;;;;;;;;;;4860142;29;20064;-83
2023/10/15 01:50:24;;;;;;;4.20;2.30;;;;;;;;;;4862792;29;20044;-83
2023/10/15 01:52:54;;;;;;;4.15;2.63;;;;;;;;;;4876759;29;20060;-83
2023/10/15 01:55:28;;;;;;;5.25;3.05;;;;;;;;;;4877232;29;20060;-82
2023/10/15 01:58:00;;;;;;;2.15;1.95;;;;;;;;;;4861785;29;20056;-83
2023/10/15 02:00:43;;;;;;;5.68;2.90;;;;;;;;;;4860789;29;20468;-83
2023/10/15 02:03:13;;;;;;;2.85;1.83;;;;;;;;;;4873819;29;20122;-83
2023/10/15 02:05:42;;;;;;;2.75;2.38;;;;;;;;;;4868749;29;20053;-82
2023/10/15 02:08:12;;;;;;;3.50;2.45;;;;;;;;;;4875088;29;20057;-83
2023/10/15 02:10:40;;;;;;;2.63;2.00;;;;;;;;;;4861023;29;20503;-83
2023/10/15 02:13:11;;;;;;;3.65;2.92;;;;;;;;;;4875588;29;20053;-83
2023/10/15 02:15:41;;;;;;;3.47;2.47;;;;;;;;;;4868355;29;20045;-83
2023/10/15 02:18:13;;;;;;;2.65;2.28;;;;;;;;;;4874319;29;20057;-83
2023/10/15 02:20:44;;;;;;;3.38;2.08;;;;;;;;;;4854951;29;20053;-83
2023/10/15 02:23:12;;;;;;;3.25;1.90;;;;;;;;;;4881522;29;20068;-80
2023/10/15 02:25:45;;;;;;;2.22;1.88;;;;;;;;;;4873349;29;20439;-81
2023/10/15 02:28:20;;;;;;;3.17;2.15;;;;;;;;;;4871748;29;20072;-81
2023/10/15 02:30:50;;;;;;;3.80;2.40;;;;;;;;;;4873204;29;20531;-81
2023/10/15 02:33:18;;;;;;;3.47;2.50;;;;;;;;;;4881300;29;20049;-81
2023/10/15 02:35:47;;;;;;;3.20;2.70;;;;;;;;;;4879492;29;20053;-81
2023/10/15 02:38:15;;;;;;;5.60;2.78;;;;;;;;;;4875280;29;20049;-80
2023/10/15 02:43:27;;;;;;;6.05;2.85;;;;;;;;;;4886744;29;20057;-80
2023/10/15 02:45:55;;;;;;;4.22;2.42;;;;;;;;;;4886604;29;20062;-81
2023/10/15 02:48:26;;;;;;;5.25;2.90;;;;;;;;;;4883992;29;20068;-80
2023/10/15 02:51:03;;;;;;;7.40;3.20;;;;;;;;;;4900986;29;20053;-81
2023/10/15 02:53:34;;;;;;;4.47;3.15;;;;;;;;;;4870402;29;20061;-81
2023/10/15 02:56:10;;;;;;;4.28;2.65;;;;;;;;;;4866181;29;20072;-81
2023/10/15 02:58:39;;;;;;;5.35;3.33;;;;;;;;;;4887146;29;20065;-81
2023/10/15 03:01:17;;;;;;;5.05;2.22;;;;;;;;;;4869359;29;20053;-81
2023/10/15 03:03:50;;;;;;;3.65;2.55;;;;;;;;;;4865922;29;20053;-81
2023/10/15 03:06:24;;;;;;;3.50;2.28;;;;;;;;;;4871466;29;20060;-80
2023/10/15 03:08:56;;;;;;;4.43;2.58;;;;;;;;;;4890118;29;20045;-80
2023/10/15 03:11:25;;;;;;;3.75;2.80;;;;;;;;;;4873522;29;20511;-80
2023/10/15 03:13:54;;;;;;;5.28;2.45;;;;;;;;;;4890901;29;20071;-80
2023/10/15 03:16:30;;;;;;;3.47;2.72;;;;;;;;;;4872149;29;20054;-81
2023/10/15 03:19:17;;;;;;;4.65;3.03;;;;;;;;;;4891250;29;20057;-81
2023/10/15 03:21:46;;;;;;;3.28;2.25;;;;;;;;;;4873219;29;20072;-81
2023/10/15 03:24:17;;;;;;;6.25;2.28;;;;;;;;;;4876701;29;20438;-81
2023/10/15 03:26:48;;;;;;;3.25;2.03;;;;;;;;;;4888273;29;20431;-81
2023/10/15 03:29:19;;;;;;;3.35;2.22;;;;;;;;;;4873590;29;20064;-81
2023/10/15 03:31:59;;;;;;;4.25;2.55;;;;;;;;;;4894312;29;20072;-81
2023/10/15 03:34:27;;;;;;;3.80;2.08;;;;;;;;;;4873611;29;20064;-80
2023/10/15 03:36:58;;;;;;;6.70;2.53;;;;;;;;;;4890250;29;20064;-80
2023/10/15 03:39:53;;;;;;;5.00;2.53;;;;;;;;;;4891325;29;20053;-80
2023/10/15 03:42:18;;;;;;;6.25;2.88;;;;;;;;;;4885886;29;20060;-80
2023/10/15 03:44:49;;;;;;;2.63;2.20;;;;;;;;;;4886370;29;20056;-80
2023/10/15 03:47:22;;;;;;;3.75;2.42;;;;;;;;;;4888446;29;20048;-80
2023/10/15 03:49:51;;;;;;;3.58;2.35;;;;;;;;;;4891486;29;20045;-80
2023/10/15 03:52:20;;;;;;;4.25;2.53;;;;;;;;;;4890714;29;20060;-81
2023/10/15 03:54:48;;;;;;;6.45;3.28;;;;;;;;;;4886372;29;20415;-81
2023/10/15 03:57:17;;;;;;;3.97;2.28;;;;;;;;;;4886616;29;20415;-81
2023/10/15 03:59:52;;;;;;;4.20;2.95;;;;;;;;;;4894776;29;20053;-81
2023/10/15 04:02:25;;;;;;;6.28;2.97;;;;;;;;;;4903209;29;20253;-81
2023/10/15 04:05:08;;;;;;;5.55;2.30;;;;;;;;;;4898568;29;20041;-81
2023/10/15 04:07:39;;;;;;;5.25;2.97;;;;;;;;;;4881624;29;20056;-81
2023/10/15 04:10:12;;;;;;;3.83;1.83;;;;;;;;;;4896795;29;20040;-81
2023/10/15 04:12:43;;;;;;;3.17;2.40;;;;;;;;;;4887802;29;20041;-81
2023/10/15 04:15:14;;;;;;;3.35;2.40;;;;;;;;;;4898243;29;20063;-81
2023/10/15 04:17:48;;;;;;;5.47;2.25;;;;;;;;;;4897171;29;20057;-81
2023/10/15 04:20:16;;;;;;;7.60;2.50;;;;;;;;;;4883221;29;20052;-80
2023/10/15 04:22:47;;;;;;;8.35;3.13;;;;;;;;;;4890458;29;20030;-80
2023/10/15 04:25:25;;;;;;;6.90;2.75;;;;;;;;;;4902677;29;20064;-80
2023/10/15 04:27:55;;;;;;;5.40;3.05;;;;;;;;;;4878201;29;20415;-80
2023/10/15 04:30:23;;;;;;;3.05;2.47;;;;;;;;;;4891753;29;20072;-80
2023/10/15 04:32:51;;;;;;;5.45;3.65;;;;;;;;;;4891317;29;20040;-80
2023/10/15 04:35:18;;;;;;;3.35;2.42;;;;;;;;;;4870992;29;20057;-80
2023/10/15 04:37:50;;;;;;;4.45;2.70;;;;;;;;;;4885515;29;20076;-80
2023/10/15 04:40:23;;;;;;;4.97;3.33;;;;;;;;;;4885183;29;20060;-80
2023/10/15 04:42:50;;;;;;;1.95;1.67;;;;;;;;;;4885164;29;20410;-80
2023/10/15 04:45:24;;;;;;;2.75;2.13;;;;;;;;;;4870428;29;20056;-80
2023/10/15 04:47:59;;;;;;;4.72;2.33;;;;;;;;;;4887283;29;20519;-80
2023/10/15 04:50:29;;;;;;;3.83;2.22;;;;;;;;;;4888373;29;20057;-81
2023/10/15 04:53:12;;;;;;;2.92;1.83;;;;;;;;;;4871809;29;20053;-81
2023/10/15 04:55:44;;;;;;;2.67;2.30;;;;;;;;;;4896139;29;20525;-81
2023/10/15 04:58:11;;;;;;;4.65;2.17;;;;;;;;;;4896995;29;20423;-81
2023/10/15 05:00:41;;;;;;;3.97;2.42;;;;;;;;;;4889970;29;20056;-81
2023/10/15 05:03:10;;;;;;;2.83;1.98;;;;;;;;;;4875356;29;20059;-81
2023/10/15 05:05:42;;;;;;;;;;;;;;;;;;4894371;29;20511;-81
2023/10/15 05:08:11;;;;;;;3.08;2.47;;;;;;;;;;4875529;29;19938;-81
2023/10/15 05:10:44;;;;;;;4.78;2.13;;;;;;;;;;4877069;29;20055;-81
2023/10/15 05:13:12;;;;;;;2.60;2.13;;;;;;;;;;4885419;29;20057;-81
2023/10/15 05:15:42;;;;;;;6.32;3.92;;;;;;;;;;4890304;29;20053;-81
2023/10/15 05:18:11;;;;;;;9.60;2.25;;;;;;;;;;4875422;29;20053;-80
2023/10/15 05:20:38;;;;;;;3.90;2.28;;;;;;;;;;4883653;29;20059;-81
2023/10/15 05:23:06;;;;;;;3.00;2.70;;;;;;;;;;4884763;29;20139;-81
2023/10/15 05:25:39;;;;;;;4.70;2.30;;;;;;;;;;4894545;29;20052;-81
2023/10/15 05:28:13;;;;;;;3.05;1.67;;;;;;;;;;4879656;29;20075;-80
2023/10/15 05:30:40;;;;;;;4.20;2.08;;;;;;;;;;4898966;29;20055;-81
2023/10/15 05:33:07;;;;;;;6.85;2.42;;;;;;;;;;4887167;29;20057;-81
2023/10/15 05:35:37;;;;;;;2.58;1.90;;;;;;;;;;4888274;29;20058;-81
2023/10/15 05:38:08;;;;;;;4.28;2.50;;;;;;;;;;4887171;29;20462;-81
2023/10/15 05:40:35;;;;;;;8.68;1.65;;;;;;;;;;4889014;29;20072;-81
2023/10/15 05:43:04;;;;;;;2.40;1.67;;;;;;;;;;4869415;29;20084;-81
2023/10/15 05:45:32;;;;;;;2.80;2.13;;;;;;;;;;4870878;29;20061;-80
2023/10/15 05:47:59;;;;;;;3.28;2.45;;;;;;;;;;4882440;29;20056;-80
2023/10/15 05:50:30;;;;;;;3.08;2.08;;;;;;;;;;4867528;29;20082;-80
2023/10/15 05:53:01;;;;;;;4.07;3.00;;;;;;;;;;4869877;29;20057;-80
2023/10/15 05:55:32;;;;;;;4.05;2.33;;;;;;;;;;4877465;29;20052;-80
2023/10/15 05:58:01;;;;;;;4.53;2.38;;;;;;;;;;4891398;29;20067;-80
2023/10/15 06:00:29;;;;;;;3.78;3.40;;;;;;;;;;4865787;29;20057;-80
2023/10/15 06:02:57;;;;;;;3.47;2.22;;;;;;;;;;4886710;29;20053;-80
2023/10/15 06:05:28;;;;;;;2.78;2.05;;;;;;;;;;4884975;29;20056;-80
2023/10/15 06:07:55;;;;;;;7.70;2.90;;;;;;;;;;4878901;29;20045;-80
2023/10/15 06:10:24;;;;;;;3.80;2.35;;;;;;;;;;4869581;29;20056;-80
2023/10/15 06:12:51;;;;;;;5.07;3.13;;;;;;;;;;4882855;29;20112;-80
2023/10/15 06:15:19;;;;;;;4.47;2.75;;;;;;;;;;4885083;29;20061;-80
2023/10/15 06:17:46;;;;;;;2.95;2.50;;;;;;;;;;4855771;29;20048;-80
2023/10/15 06:20:16;;;;;;;5.00;2.60;;;;;;;;;;4870669;29;20056;-80
2023/10/15 06:22:45;;;;;;;4.72;2.50;;;;;;;;;;4880563;29;20077;-81
2023/10/15 06:25:13;;;;;;;6.00;2.83;;;;;;;;;;4885137;29;20076;-81
2023/10/15 06:27:42;;;;;;;4.45;2.00;;;;;;;;;;4869029;29;20056;-81
2023/10/15 06:30:14;;;;;;;3.22;1.73;;;;;;;;;;4886244;29;20057;-81
2023/10/15 06:32:48;;;;;;;5.65;2.70;;;;;;;;;;4870212;29;20064;-81
2023/10/15 06:35:21;;;;;;;2.65;2.33;;;;;;;;;;4873799;29;20059;-81
2023/10/15 06:37:52;;;;;;;5.30;2.78;;;;;;;;;;4882736;29;20045;-81
2023/10/15 06:40:19;;;;;;;3.33;2.20;;;;;;;;;;4875240;29;20049;-80
2023/10/15 06:42:51;;;;;;;4.30;2.63;;;;;;;;;;4889229;29;20048;-80
2023/10/15 06:45:19;;;;;;;4.20;2.70;;;;;;;;;;4876464;29;20056;-80
2023/10/15 06:47:52;;;;;;;3.35;2.47;;;;;;;;;;4871773;29;20057;-80
2023/10/15 06:50:19;;;;;;;4.82;2.33;;;;;;;;;;4873912;29;20057;-80
2023/10/15 06:52:47;;;;;;;3.38;1.88;;;;;;;;;;4875031;29;20061;-80
2023/10/15 06:55:19;;;;;;;2.42;1.85;;;;;;;;;;4888906;29;20060;-80
2023/10/15 06:57:47;;;;;;;4.82;3.05;;;;;;;;;;4891424;29;20056;-80
2023/10/15 07:00:22;;;;;;;3.83;1.67;;;;;;;;;;4884768;29;20063;-80
2023/10/15 07:02:52;;;;;;;2.45;2.25;;;;;;;;;;4886378;29;20064;-80
2023/10/15 07:05:20;;;;;;;4.35;2.92;;;;;;;;;;4896871;23;20423;-80
2023/10/15 07:07:47;;;;;;;3.28;2.45;;;;;;;;;;4862758;29;20061;-80
2023/10/15 07:10:17;;;;;;;5.70;2.85;;;;;;;;;;4887892;29;20055;-79
2023/10/15 07:12:45;;;;;;;3.75;2.55;;;;;;;;;;4872607;29;20068;-79
2023/10/15 07:15:14;;;;;;;2.63;2.40;;;;;;;;;;4875348;29;20530;-79
2023/10/15 07:17:45;;;;;;;3.13;2.25;;;;;;;;;;4890201;29;20061;-79
2023/10/15 07:20:18;;;;;;;;;;;;;;;;;;4874473;29;20064;-79
2023/10/15 07:22:49;;;;;;;2.88;1.80;;;;;;;;;;4889282;29;19924;-79
2023/10/15 07:25:17;;;;;;;3.28;2.05;;;;;;;;;;4887038;29;20056;-79
2023/10/15 07:27:48;;;;;;;3.25;2.75;;;;;;;;;;4887655;29;20387;-79
2023/10/15 07:30:17;;;;;;;6.40;2.65;;;;;;;;;;4884364;29;20053;-79
2023/10/15 07:32:45;;;;;;;3.38;2.70;;;;;;;;;;4891301;29;20053;-79
2023/10/15 07:35:14;;;;;;;6.47;2.15;;;;;;;;;;4889733;29;20069;-79
2023/10/15 07:37:41;;;;;;;4.20;3.15;;;;;;;;;;4877471;29;20068;-79
2023/10/15 07:40:16;;;;;;;3.20;2.90;;;;;;;;;;4872936;29;20052;-79
2023/10/15 07:42:44;;;;;;;5.70;3.33;;;;;;;;;;4901684;29;20045;-79
2023/10/15 07:45:14;;;;;;;7.32;2.53;;;;;;;;;;4889440;29;20060;-79
2023/10/15 07:47:41;;;;;;;3.15;2.85;;;;;;;;;;4885875;29;20053;-79
2023/10/15 07:50:12;;;;;;;2.55;2.35;;;;;;;;;;4886572;29;20063;-79
2023/10/15 07:52:40;;;;;;;13.05;3.08;;;;;;;;;;4886567;29;20505;-79
2023/10/15 07:55:10;;;;;;;10.05;3.97;;;;;;;;;;4871424;29;20062;-79
2023/10/15 07:57:38;;;;;;;4.60;2.65;;;;;;;;;;4872859;29;20053;-79
2023/10/15 08:00:07;;;;;;;3.45;2.13;;;;;;;;;;4871395;29;20056;-79
2023/10/15 08:02:39;;;;;;;5.22;2.28;;;;;;;;;;4893654;29;20048;-79
2023/10/15 08:05:12;;;;;;;4.45;2.83;;;;;;;;;;4873033;29;20419;-80
2023/10/15 08:07:43;;;;;;;5.82;3.42;;;;;;;;;;4869940;29;20056;-80
2023/10/15 08:10:10;;;;;;;3.42;2.60;;;;;;;;;;4888197;29;20056;-80
2023/10/15 08:12:41;;;;;;;6.88;2.00;;;;;;;;;;4886943;29;20419;-80
2023/10/15 08:15:09;;;;;;;6.97;2.22;;;;;;;;;;4873086;29;20061;-80
2023/10/15 08:17:36;;;;;;;4.78;2.63;;;;;;;;;;4888235;29;20052;-79
2023/10/15 08:20:06;;;;;;;5.55;2.97;;;;;;;;;;4872848;29;20060;-79
2023/10/15 08:22:40;;;;;;;6.75;3.28;;;;;;;;;;4857399;29;20064;-79
2023/10/15 08:25:13;;;;;;;4.68;2.17;;;;;;;;;;4873936;29;20060;-79
2023/10/15 08:27:44;;;;;;;4.53;2.20;;;;;;;;;;4871848;29;20061;-79
2023/10/15 08:30:17;;;;;;;7.38;1.90;;;;;;;;;;4887229;29;20444;-79
2023/10/15 08:32:45;;;;;;;3.92;2.03;;;;;;;;;;4886813;29;20048;-79
2023/10/15 08:35:13;;;;;;;4.20;3.08;;;;;;;;;;4901142;29;20065;-79
2023/10/15 08:37:45;;;;;;;5.45;2.75;;;;;;;;;;4885333;29;20064;-81
2023/10/15 08:40:17;;;;;;;4.38;1.73;;;;;;;;;;4887150;29;20667;-80
2023/10/15 08:42:51;;;;;;;2.80;2.13;;;;;;;;;;4885783;29;20507;-80
2023/10/15 08:45:21;;;;;;;3.97;2.40;;;;;;;;;;4872803;29;20060;-80
2023/10/15 08:47:50;;;;;;;6.82;2.58;;;;;;;;;;4870676;29;20057;-80
2023/10/15 08:50:21;;;;;;;2.17;1.98;;;;;;;;;;4887860;29;20044;-80
2023/10/15 08:52:52;;;;;;;4.38;3.03;;;;;;;;;;4873251;29;20057;-80
2023/10/15 08:55:23;;;;;;;4.18;2.15;;;;;;;;;;4871817;29;20097;-80
2023/10/15 08:57:54;;;;;;;6.72;2.13;;;;;;;;;;4886038;29;20041;-80
2023/10/15 09:00:28;;;;;;;3.95;1.85;;;;;;;;;;4886670;29;20053;-80
2023/10/15 09:03:01;;;;;;;3.30;2.05;;;;;;;;;;4888264;29;20057;-79
2023/10/15 09:05:34;;;;;;;5.57;2.60;;;;;;;;;;4872447;29;20060;-79
2023/10/15 09:08:06;;;;;;;7.40;1.75;;;;;;;;;;4871636;29;20060;-80
2023/10/15 09:10:37;;;;;;;3.03;1.60;;;;;;;;;;4887797;29;20056;-80
2023/10/15 09:13:14;;;;;;;3.00;2.03;;;;;;;;;;4886021;29;20061;-80
2023/10/15 09:15:44;;;;;;;5.15;1.90;;;;;;;;;;4886552;29;20052;-80
2023/10/15 09:18:15;;;;;;;5.00;2.03;;;;;;;;;;4870819;29;20056;-80
2023/10/15 09:20:50;;;;;;;2.83;1.77;;;;;;;;;;4872665;29;20064;-80
2023/10/15 09:23:21;;;;;;;4.65;1.17;;;;;;;;;;4867467;29;20045;-80
2023/10/15 09:25:55;;;;;;;;;;;;;;;;;;4873254;29;20053;-80
2023/10/15 09:28:27;;;;;;;4.38;1.50;;;;;;;;;;4871925;29;20378;-80
2023/10/15 09:31:02;;;;;;;7.53;2.55;;;;;;;;;;4883952;29;20048;-80
2023/10/15 09:33:30;;;;;;;4.95;1.80;;;;;;;;;;4887192;29;20051;-80
2023/10/15 09:35:57;;;;;;;3.25;1.30;;;;;;;;;;4870692;29;20412;-81
2023/10/15 09:38:31;;;;;;;3.70;2.38;;;;;;;;;;4888674;29;20392;-80
2023/10/15 09:40:58;;;;;;;4.90;1.33;;;;;;;;;;4885998;29;20045;-80
2023/10/15 09:43:26;;;;;;;3.08;1.00;;;;;;;;;;4886455;29;20057;-80
2023/10/15 09:45:54;;;;;;;2.38;1.55;;;;;;;;;;4874936;29;20049;-80
2023/10/15 09:48:24;;;;;;;4.95;2.28;;;;;;;;;;4888582;29;20843;-80
2023/10/15 09:50:57;;;;;;;2.30;1.10;;;;;;;;;;4869399;29;20044;-80
2023/10/15 09:53:28;;;;;;;6.70;1.50;;;;;;;;;;4869319;29;20068;-80
2023/10/15 09:56:03;;;;;;;1.70;1.27;;;;;;;;;;4887764;29;20045;-80
2023/10/15 09:58:31;;;;;;;5.22;1.45;;;;;;;;;;4869772;29;20044;-80
2023/10/15 10:01:08;;;;;;;1.63;1.17;;;;;;;;;;4884026;29;20060;-80
2023/10/15 10:04:04;;;;;;;3.80;1.60;;;;;;;;;;4884037;29;20060;-80
2023/10/15 10:06:59;;;;;;;3.00;1.50;;;;;;;;;;4883816;29;20063;-80
2023/10/15 10:09:45;;;;;;;4.10;1.10;;;;;;;;;;4883543;29;20053;-80
2023/10/15 10:12:25;;;;;;;5.75;2.03;;;;;;;;;;4889444;29;20064;-80
2023/10/15 10:15:06;;;;;;;5.32;1.63;;;;;;;;;;4889641;29;20057;-80
2023/10/15 10:17:33;;;;;;;3.72;1.10;;;;;;;;;;4875948;29;20049;-80
2023/10/15 10:20:10;;;;;;;1.88;1.67;;;;;;;;;;4877113;29;20055;-80
2023/10/15 10:22:39;;;;;;;1.80;1.20;;;;;;;;;;4892244;29;20605;-80
2023/10/15 10:25:29;;;;;;;4.05;1.08;;;;;;;;;;4892838;29;20056;-80
2023/10/15 10:28:06;;;;;;;1.38;1.17;;;;;;;;;;4872322;29;20057;-80
2023/10/15 10:30:37;;;;;;;5.10;1.50;;;;;;;;;;4885856;29;20064;-80
2023/10/15 10:33:07;;;;;;;5.55;1.15;;;;;;;;;;4878145;29;20063;-80
2023/10/15 10:35:45;;;;;;;2.75;1.20;;;;;;;;;;4891603;29;20056;-80
2023/10/15 10:38:18;;;;;;;2.55;1.63;;;;;;;;;;4878238;29;20049;-80
2023/10/15 10:40:52;;;;;;;8.60;2.00;;;;;;;;;;4889759;29;20053;-80
2023/10/15 10:43:21;;;;;;;6.38;1.50;;;;;;;;;;4886678;29;20049;-80
2023/10/15 10:45:54;;;;;;;4.75;1.67;;;;;;;;;;4872060;29;20061;-80
2023/10/15 10:48:27;;;;;;;2.55;1.38;;;;;;;;;;4888888;29;20055;-80
2023/10/15 10:51:15;;;;;;;4.65;1.38;;;;;;;;;;4889173;29;20045;-81
2023/10/15 10:54:25;;;;;;;10.55;1.92;;;;;;;;;;4886507;29;20053;-80
2023/10/15 10:57:06;;;;;;;1.55;1.00;;;;;;;;;;4890623;29;20067;-80
2023/10/15 10:59:35;;;;;;;1.52;0.90;;;;;;;;;;4888628;29;20052;-80
2023/10/15 11:02:05;;;;;;;1.08;0.80;;;;;;;;;;4902900;29;20060;-80
2023/10/15 11:04:32;;;;;;;4.82;1.23;;;;;;;;;;4892145;29;20057;-81
2023/10/15 11:07:00;;;;;;;1.50;1.00;;;;;;;;;;4863349;29;20052;-81
2023/10/15 11:09:29;;;;;;;2.28;1.00;;;;;;;;;;4870495;29;20499;-81
2023/10/15 11:12:04;;;;;;;3.47;1.02;;;;;;;;;;4872246;29;20191;-80
2023/10/15 11:14:33;;;;;;;3.28;1.52;;;;;;;;;;4878497;29;20060;-80
2023/10/15 11:17:04;;;;;;;3.08;1.05;;;;;;;;;;4877120;29;20267;-79
2023/10/15 11:19:32;;;;;;;3.80;1.00;;;;;;;;;;4878916;29;20056;-80
2023/10/15 11:22:03;;;;;;;1.88;1.23;;;;;;;;;;4881211;29;20278;-80
2023/10/15 11:24:33;;;;;;;1.58;0.60;;;;;;;;;;4900171;29;20048;-80
2023/10/15 11:27:06;;;;;;;1.00;0.45;;;;;;;;;;4898692;29;20063;-80
2023/10/15 11:29:34;;;;;;;2.25;0.60;;;;;;;;;;4884416;29;20037;-81
2023/10/15 11:32:01;;;;;;;1.42;0.65;;;;;;;;;;4901968;29;20053;-81
2023/10/15 11:34:31;;;;;;;0.55;0.52;;;;;;;;;;4902071;29;20048;-81
2023/10/15 11:37:01;;;;;;;2.20;1.45;;;;;;;;;;4887059;29;20049;-81
2023/10/15 11:39:37;;;;;;;2.47;0.80;;;;;;;;;;4901934;29;20053;-81
2023/10/15 11:42:08;;;;;;;1.92;0.73;;;;;;;;;;4899626;29;20056;-81
2023/10/15 11:44:38;;;;;;;1.48;0.95;;;;;;;;;;4880907;29;20057;-81
2023/10/15 11:47:12;;;;;;;1.63;1.10;;;;;;;;;;4891873;29;20063;-81
2023/10/15 11:49:42;;;;;;;1.10;0.70;;;;;;;;;;4870504;29;20068;-81
2023/10/15 11:52:14;;;;;;;2.33;1.45;;;;;;;;;;4868124;29;20060;-81
2023/10/15 11:54:43;;;;;;;1.25;0.80;;;;;;;;;;4882976;29;20057;-81
2023/10/15 11:57:16;;;;;;;1.73;0.93;;;;;;;;;;4883733;29;20060;-81
2023/10/15 11:59:49;;;;;;;1.63;0.75;;;;;;;;;;4868764;29;20069;-79
2023/10/15 12:02:17;;;;;;;5.75;0.73;;;;;;;;;;4884248;29;20101;-79
2023/10/15 12:04:44;;;;;;;1.48;0.90;;;;;;;;;;4870316;29;20057;-79
2023/10/15 12:07:16;;;;;;;0.98;0.60;;;;;;;;;;4888486;29;20065;-79
2023/10/15 12:09:44;;;;;;;1.33;0.90;;;;;;;;;;4874137;29;20064;-79
2023/10/15 12:12:12;;;;;;;2.35;0.85;;;;;;;;;;4893162;29;20053;-81
2023/10/15 12:14:41;;;;;;;1.38;0.90;;;;;;;;;;4896912;29;20414;-81
2023/10/15 12:17:12;;;;;;;1.17;0.80;;;;;;;;;;4881551;29;20063;-81
2023/10/15 12:19:47;;;;;;;2.33;0.98;;;;;;;;;;4895635;29;20049;-79
2023/10/15 12:22:16;;;;;;;2.03;1.00;;;;;;;;;;4876083;29;20061;-80
2023/10/15 12:24:43;;;;;;;1.33;0.85;;;;;;;;;;4890694;29;20052;-80
2023/10/15 12:27:11;;;;;;;3.67;1.58;;;;;;;;;;4873844;29;20057;-80
2023/10/15 12:29:38;;;;;;;1.25;0.82;;;;;;;;;;4874744;29;20055;-79
2023/10/15 12:32:09;;;;;;;1.45;0.90;;;;;;;;;;4873087;29;20057;-79
2023/10/15 12:34:37;;;;;;;0.82;0.65;;;;;;;;;;4873310;29;20068;-79
2023/10/15 12:37:07;;;;;;;3.90;1.25;;;;;;;;;;4888400;29;20061;-79
2023/10/15 12:39:40;;;;;;;1.30;1.08;;;;;;;;;;4870091;29;20064;-79
2023/10/15 12:42:11;;;;;;;1.23;0.80;;;;;;;;;;4884031;29;20055;-79
2023/10/15 12:44:39;;;;;;;2.90;0.75;;;;;;;;;;4870923;29;20052;-79
2023/10/15 12:47:07;;;;;;;1.05;0.60;;;;;;;;;;4886580;29;20052;-80
2023/10/15 12:49:36;;;;;;;1.30;0.90;;;;;;;;;;4871514;29;20083;-80
2023/10/15 12:52:08;;;;;;;2.15;1.08;;;;;;;;;;4887045;29;20056;-80
2023/10/15 12:54:37;;;;;;;1.30;0.70;;;;;;;;;;4888542;29;20052;-80
2023/10/15 12:57:05;;;;;;;1.75;0.75;;;;;;;;;;4889237;29;20057;-80
2023/10/15 12:59:34;;;;;;;2.00;1.20;;;;;;;;;;4870125;29;20052;-80
2023/10/15 13:02:04;;;;;;;1.02;0.90;;;;;;;;;;4887495;29;20064;-80
2023/10/15 13:07:22;;;;;;;1.63;0.80;;;;;;;;;;4812846;23;20053;-82
2023/10/15 13:09:49;;;;;;;1.67;0.70;;;;;;;;;;4863601;29;20060;-82
2023/10/15 13:12:20;;;;;;;1.33;0.90;;;;;;;;;;4845503;29;20050;-82
2023/10/15 13:14:49;;;;;;;1.58;1.00;;;;;;;;;;4875011;29;20064;-82
2023/10/15 13:17:22;;;;;;;2.92;0.90;;;;;;;;;;4860084;29;20064;-82
2023/10/15 13:19:51;;;;;;;1.40;0.60;;;;;;;;;;4875554;29;20428;-82
2023/10/15 13:22:22;;;;;;;0.93;0.68;;;;;;;;;;4844400;29;20064;-83
2023/10/15 13:24:49;;;;;;;1.17;0.60;;;;;;;;;;4875019;29;20061;-82
2023/10/15 13:27:19;;;;;;;1.58;0.98;;;;;;;;;;4859525;29;20072;-82
2023/10/15 13:29:49;;;;;;;1.60;0.77;;;;;;;;;;4859875;29;20065;-82
2023/10/15 13:32:16;;;;;;;0.90;0.60;;;;;;;;;;4844399;29;20057;-82
2023/10/15 13:34:46;;;;;;;1.13;0.70;;;;;;;;;;4880901;29;20052;-81
2023/10/15 13:37:15;;;;;;;1.02;0.65;;;;;;;;;;4880197;29;20424;-81
2023/10/15 13:39:44;;;;;;;0.98;0.40;;;;;;;;;;4864756;29;20069;-81
2023/10/15 13:42:12;;;;;;;1.15;0.60;;;;;;;;;;4865211;29;20128;-81
2023/10/15 13:44:44;;;;;;;1.75;0.65;;;;;;;;;;4861521;29;20049;-82
2023/10/15 13:47:11;;;;;;;1.40;0.75;;;;;;;;;;4864087;29;20069;-82
2023/10/15 13:49:40;;;;;;;3.65;2.45;;;;;;;;;;4878339;29;20057;-82
2023/10/15 13:52:11;;;;;;;3.10;1.02;;;;;;;;;;4863052;29;20057;-83
2023/10/15 13:54:39;;;;;;;1.23;0.85;;;;;;;;;;4864373;29;20064;-83
2023/10/15 13:57:09;;;;;;;1.05;0.68;;;;;;;;;;4864933;29;20064;-82
2023/10/15 13:59:40;;;;;;;1.52;0.90;;;;;;;;;;4865096;29;20054;-82
2023/10/15 14:02:12;;;;;;;5.85;1.42;;;;;;;;;;4863319;29;20042;-82
2023/10/15 14:04:39;;;;;;;2.75;1.65;;;;;;;;;;4864950;29;20412;-82
2023/10/15 14:07:06;;;;;;;1.08;0.77;;;;;;;;;;4862786;29;20068;-82
2023/10/15 14:09:34;;;;;;;2.00;0.75;;;;;;;;;;4864825;29;20049;-82
2023/10/15 14:12:01;;;;;;;1.15;0.82;;;;;;;;;;4866130;29;20624;-83
2023/10/15 14:14:33;;;;;;;0.75;0.60;;;;;;;;;;4864607;29;20061;-83
2023/10/15 14:17:00;;;;;;;1.67;0.90;;;;;;;;;;4865050;29;20064;-83
2023/10/15 14:19:29;;;;;;;1.48;1.10;;;;;;;;;;4879024;29;20050;-83
2023/10/15 14:21:57;;;;;;;1.63;0.95;;;;;;;;;;4864129;29;20503;-83
2023/10/15 14:24:24;;;;;;;2.53;0.77;;;;;;;;;;4864325;29;20056;-83
2023/10/15 14:26:51;;;;;;;1.38;0.70;;;;;;;;;;4864348;29;20058;-83
2023/10/15 14:29:20;;;;;;;1.35;1.10;;;;;;;;;;4861251;29;20058;-83
2023/10/15 14:31:48;;;;;;;1.13;0.80;;;;;;;;;;4863836;29;20049;-83
2023/10/15 14:34:15;;;;;;;1.52;0.88;;;;;;;;;;4861605;29;20057;-83
2023/10/15 14:36:47;;;;;;;4.57;2.10;;;;;;;;;;4881772;29;20060;-83
2023/10/15 14:39:17;;;;;;;0.70;0.65;;;;;;;;;;4877670;29;20124;-82
2023/10/15 14:41:45;;;;;;;2.15;0.85;;;;;;;;;;4880372;29;20056;-83
2023/10/15 14:44:12;;;;;;;1.17;0.70;;;;;;;;;;4868205;29;20058;-83
2023/10/15 14:46:41;;;;;;;0.77;0.77;;;;;;;;;;4863878;29;20060;-83
2023/10/15 14:49:09;;;;;;;1.35;1.00;;;;;;;;;;4862259;29;20057;-83
2023/10/15 14:51:37;;;;;;;1.67;0.95;;;;;;;;;;4864671;29;20405;-83
2023/10/15 14:54:06;;;;;;;1.15;0.98;;;;;;;;;;4859275;29;20060;-83
2023/10/15 14:56:36;;;;;;;1.10;0.77;;;;;;;;;;4866333;29;20053;-83
2023/10/15 14:59:06;;;;;;;1.05;0.68;;;;;;;;;;4858897;29;20057;-83
2023/10/15 15:01:36;;;;;;;1.10;0.90;;;;;;;;;;4848758;29;20065;-83
2023/10/15 15:04:10;;;;;;;1.15;0.70;;;;;;;;;;4867369;29;20057;-83
2023/10/15 15:06:40;;;;;;;2.53;0.80;;;;;;;;;;4865646;29;20061;-83
2023/10/15 15:09:11;;;;;;;1.08;0.65;;;;;;;;;;4850934;29;20546;-82
2023/10/15 15:11:39;;;;;;;1.83;0.82;;;;;;;;;;4865329;29;20061;-83